sensor_id;sensor_type;location;lat;lon;timestamp;temperature;humidity
21570;DHT22;57598;50.888;4.746;2023-05-19T06:57:36;14.90;95.40
21570;DHT22;57598;50.888;4.746;2023-05-19T07:00:04;14.50;95.70
21570;DHT22;57598;50.888;4.746;2023-05-19T07:02:31;14.80;95.80
21570;DHT22;57598;50.888;4.746;2023-05-19T07:04:58;14.90;95.60
21570;DHT22;57598;50.888;4.746;2023-05-19T07:07:25;15.30;95.10
21570;DHT22;57598;50.888;4.746;2023-05-19T07:09:52;15.40;94.60
21570;DHT22;57598;50.888;4.746;2023-05-19T07:12:19;15.60;94.70
21570;DHT22;57598;50.888;4.746;2023-05-19T07:14:48;15.70;94.40
21570;DHT22;57598;50.888;4.746;2023-05-19T07:17:15;15.90;94.30
21570;DHT22;57598;50.888;4.746;2023-05-19T07:19:42;16.00;93.20
21570;DHT22;57598;50.888;4.746;2023-05-19T07:22:09;16.10;92.80
21570;DHT22;57598;50.888;4.746;2023-05-19T07:24:36;16.60;92.30
21570;DHT22;57598;50.888;4.746;2023-05-19T07:27:04;16.70;91.90
21570;DHT22;57598;50.888;4.746;2023-05-19T07:29:31;16.60;92.30
21570;DHT22;57598;50.888;4.746;2023-05-19T07:31:59;16.90;92.00
21570;DHT22;57598;50.888;4.746;2023-05-19T07:34:26;17.60;90.50
21570;DHT22;57598;50.888;4.746;2023-05-19T07:36:53;17.20;90.50
21570;DHT22;57598;50.888;4.746;2023-05-19T07:39:20;17.20;91.40
21570;DHT22;57598;50.888;4.746;2023-05-19T07:41:49;17.10;90.70
21570;DHT22;57598;50.888;4.746;2023-05-19T07:44:20;16.70;91.50
21570;DHT22;57598;50.888;4.746;2023-05-19T07:46:47;16.90;91.80
21570;DHT22;57598;50.888;4.746;2023-05-19T07:49:15;17.80;91.10
21570;DHT22;57598;50.888;4.746;2023-05-19T07:51:42;18.30;90.10
21570;DHT22;57598;50.888;4.746;2023-05-19T07:54:09;18.60;89.50
21570;DHT22;57598;50.888;4.746;2023-05-19T07:56:36;18.80;87.10
21570;DHT22;57598;50.888;4.746;2023-05-19T07:59:03;19.30;85.70
21570;DHT22;57598;50.888;4.746;2023-05-19T08:01:32;19.20;86.60
21570;DHT22;57598;50.888;4.746;2023-05-19T08:04:00;19.60;82.60
21570;DHT22;57598;50.888;4.746;2023-05-19T08:06:28;19.80;80.80
21570;DHT22;57598;50.888;4.746;2023-05-19T08:08:56;19.40;82.20
21570;DHT22;57598;50.888;4.746;2023-05-19T08:11:23;19.30;83.50
21570;DHT22;57598;50.888;4.746;2023-05-19T08:13:51;19.10;83.10
21570;DHT22;57598;50.888;4.746;2023-05-19T08:16:18;18.90;84.60
21570;DHT22;57598;50.888;4.746;2023-05-19T08:18:45;19.30;84.20
21570;DHT22;57598;50.888;4.746;2023-05-19T08:21:12;20.20;82.30
21570;DHT22;57598;50.888;4.746;2023-05-19T08:23:40;20.10;78.60
21570;DHT22;57598;50.888;4.746;2023-05-19T08:26:07;20.60;77.90
21570;DHT22;57598;50.888;4.746;2023-05-19T08:28:34;21.00;77.10
21570;DHT22;57598;50.888;4.746;2023-05-19T08:31:01;21.60;76.30
21570;DHT22;57598;50.888;4.746;2023-05-19T08:33:28;21.70;75.30
21570;DHT22;57598;50.888;4.746;2023-05-19T08:35:56;21.70;73.40
21570;DHT22;57598;50.888;4.746;2023-05-19T08:38:23;21.60;71.60
21570;DHT22;57598;50.888;4.746;2023-05-19T08:40:52;21.40;73.90
21570;DHT22;57598;50.888;4.746;2023-05-19T08:43:19;21.50;73.30
21570;DHT22;57598;50.888;4.746;2023-05-19T08:45:46;20.90;73.20
21570;DHT22;57598;50.888;4.746;2023-05-19T08:48:14;21.20;73.10
21570;DHT22;57598;50.888;4.746;2023-05-19T08:50:49;21.90;71.90
21570;DHT22;57598;50.888;4.746;2023-05-19T08:53:20;22.30;70.00
21570;DHT22;57598;50.888;4.746;2023-05-19T08:55:57;22.20;70.30
21570;DHT22;57598;50.888;4.746;2023-05-19T08:58:27;22.40;68.10
21570;DHT22;57598;50.888;4.746;2023-05-19T09:00:55;22.50;68.50
21570;DHT22;57598;50.888;4.746;2023-05-19T09:03:23;22.60;67.00
21570;DHT22;57598;50.888;4.746;2023-05-19T09:05:51;22.30;67.90
21570;DHT22;57598;50.888;4.746;2023-05-19T09:08:18;22.30;67.50
21570;DHT22;57598;50.888;4.746;2023-05-19T09:10:45;22.40;66.80
21570;DHT22;57598;50.888;4.746;2023-05-19T09:13:14;22.70;68.10
21570;DHT22;57598;50.888;4.746;2023-05-19T09:15:41;23.00;66.60
21570;DHT22;57598;50.888;4.746;2023-05-19T09:18:11;23.90;62.10
21570;DHT22;57598;50.888;4.746;2023-05-19T09:20:40;23.50;60.90
21570;DHT22;57598;50.888;4.746;2023-05-19T09:23:11;23.30;63.60
21570;DHT22;57598;50.888;4.746;2023-05-19T09:25:46;23.20;64.50
21570;DHT22;57598;50.888;4.746;2023-05-19T09:28:22;23.20;60.40
21570;DHT22;57598;50.888;4.746;2023-05-19T09:30:58;23.50;61.10
21570;DHT22;57598;50.888;4.746;2023-05-19T09:33:25;23.60;62.10
21570;DHT22;57598;50.888;4.746;2023-05-19T09:35:53;23.60;60.80
21570;DHT22;57598;50.888;4.746;2023-05-19T09:38:21;23.40;59.70
21570;DHT22;57598;50.888;4.746;2023-05-19T09:40:49;23.70;59.90
21570;DHT22;57598;50.888;4.746;2023-05-19T09:43:18;23.60;60.00
21570;DHT22;57598;50.888;4.746;2023-05-19T09:45:46;23.40;61.50
21570;DHT22;57598;50.888;4.746;2023-05-19T09:48:13;23.40;60.60
21570;DHT22;57598;50.888;4.746;2023-05-19T09:50:42;23.50;59.80
21570;DHT22;57598;50.888;4.746;2023-05-19T09:53:12;23.50;61.00
21570;DHT22;57598;50.888;4.746;2023-05-19T09:55:39;23.50;60.80
21570;DHT22;57598;50.888;4.746;2023-05-19T09:58:07;23.40;59.50
21570;DHT22;57598;50.888;4.746;2023-05-19T10:00:37;22.70;59.30
21570;DHT22;57598;50.888;4.746;2023-05-19T10:03:04;22.80;60.10
21570;DHT22;57598;50.888;4.746;2023-05-19T10:05:32;22.60;60.00
21570;DHT22;57598;50.888;4.746;2023-05-19T10:07:59;23.20;59.70
21570;DHT22;57598;50.888;4.746;2023-05-19T10:10:27;23.40;59.10
21570;DHT22;57598;50.888;4.746;2023-05-19T10:12:55;23.40;57.50
21570;DHT22;57598;50.888;4.746;2023-05-19T10:15:25;23.50;59.20
21570;DHT22;57598;50.888;4.746;2023-05-19T10:17:54;23.70;57.90
21570;DHT22;57598;50.888;4.746;2023-05-19T10:20:21;24.00;57.00
21570;DHT22;57598;50.888;4.746;2023-05-19T10:22:50;24.30;56.70
21570;DHT22;57598;50.888;4.746;2023-05-19T10:25:17;24.40;55.20
21570;DHT22;57598;50.888;4.746;2023-05-19T10:27:50;25.00;54.60
21570;DHT22;57598;50.888;4.746;2023-05-19T10:30:24;24.90;54.10
21570;DHT22;57598;50.888;4.746;2023-05-19T10:32:54;25.40;55.20
21570;DHT22;57598;50.888;4.746;2023-05-19T10:35:58;25.70;55.40
21570;DHT22;57598;50.888;4.746;2023-05-19T10:38:38;25.40;54.80
21570;DHT22;57598;50.888;4.746;2023-05-19T10:41:10;25.70;53.70
21570;DHT22;57598;50.888;4.746;2023-05-19T10:43:46;26.30;54.40
21570;DHT22;57598;50.888;4.746;2023-05-19T10:46:15;25.80;51.30
21570;DHT22;57598;50.888;4.746;2023-05-19T10:48:45;26.20;54.20
21570;DHT22;57598;50.888;4.746;2023-05-19T10:51:13;26.70;51.60
21570;DHT22;57598;50.888;4.746;2023-05-19T10:53:42;26.80;51.40
21570;DHT22;57598;50.888;4.746;2023-05-19T10:56:26;26.70;52.00
21570;DHT22;57598;50.888;4.746;2023-05-19T10:58:54;26.40;49.30
21570;DHT22;57598;50.888;4.746;2023-05-19T11:01:21;26.80;51.90
21570;DHT22;57598;50.888;4.746;2023-05-19T11:03:56;26.70;49.70
21570;DHT22;57598;50.888;4.746;2023-05-19T11:06:26;26.90;48.80
21570;DHT22;57598;50.888;4.746;2023-05-19T11:08:57;26.40;49.20
21570;DHT22;57598;50.888;4.746;2023-05-19T11:11:25;26.30;49.90
21570;DHT22;57598;50.888;4.746;2023-05-19T11:13:54;27.30;49.50
21570;DHT22;57598;50.888;4.746;2023-05-19T11:16:27;28.10;49.20
21570;DHT22;57598;50.888;4.746;2023-05-19T11:18:58;27.70;48.00
21570;DHT22;57598;50.888;4.746;2023-05-19T11:21:40;27.50;49.10
21570;DHT22;57598;50.888;4.746;2023-05-19T11:24:07;27.50;47.20
21570;DHT22;57598;50.888;4.746;2023-05-19T11:26:41;27.60;46.80
21570;DHT22;57598;50.888;4.746;2023-05-19T11:29:09;27.60;48.10
21570;DHT22;57598;50.888;4.746;2023-05-19T11:31:36;26.70;49.80
21570;DHT22;57598;50.888;4.746;2023-05-19T11:34:06;26.80;50.20
21570;DHT22;57598;50.888;4.746;2023-05-19T11:36:35;26.30;49.10
21570;DHT22;57598;50.888;4.746;2023-05-19T11:39:03;26.10;51.80
21570;DHT22;57598;50.888;4.746;2023-05-19T11:41:31;26.10;52.30
21570;DHT22;57598;50.888;4.746;2023-05-19T11:43:58;25.80;51.20
21570;DHT22;57598;50.888;4.746;2023-05-19T11:46:25;26.00;51.70
21570;DHT22;57598;50.888;4.746;2023-05-19T11:48:53;25.80;50.50
21570;DHT22;57598;50.888;4.746;2023-05-19T11:51:22;25.90;50.70
21570;DHT22;57598;50.888;4.746;2023-05-19T11:53:49;25.30;49.60
21570;DHT22;57598;50.888;4.746;2023-05-19T11:56:18;26.00;50.70
21570;DHT22;57598;50.888;4.746;2023-05-19T11:58:47;26.80;49.50
21570;DHT22;57598;50.888;4.746;2023-05-19T12:01:14;26.30;48.40
21570;DHT22;57598;50.888;4.746;2023-05-19T12:03:41;26.60;48.30
21570;DHT22;57598;50.888;4.746;2023-05-19T12:06:09;26.40;47.90
21570;DHT22;57598;50.888;4.746;2023-05-19T12:08:39;26.50;47.60
21570;DHT22;57598;50.888;4.746;2023-05-19T12:11:06;26.60;49.40
21570;DHT22;57598;50.888;4.746;2023-05-19T12:13:34;27.40;49.50
21570;DHT22;57598;50.888;4.746;2023-05-19T12:16:03;27.20;49.30
21570;DHT22;57598;50.888;4.746;2023-05-19T12:18:35;27.20;47.40
21570;DHT22;57598;50.888;4.746;2023-05-19T12:21:02;27.40;46.10
21570;DHT22;57598;50.888;4.746;2023-05-19T12:23:30;28.10;46.50
21570;DHT22;57598;50.888;4.746;2023-05-19T12:26:00;28.10;46.60
21570;DHT22;57598;50.888;4.746;2023-05-19T12:28:28;27.70;46.40
21570;DHT22;57598;50.888;4.746;2023-05-19T12:30:56;26.70;46.80
21570;DHT22;57598;50.888;4.746;2023-05-19T12:33:23;26.90;46.60
21570;DHT22;57598;50.888;4.746;2023-05-19T12:35:50;26.90;46.40
21570;DHT22;57598;50.888;4.746;2023-05-19T12:38:18;26.70;46.50
21570;DHT22;57598;50.888;4.746;2023-05-19T12:40:46;26.60;47.50
21570;DHT22;57598;50.888;4.746;2023-05-19T12:43:20;25.50;47.30
21570;DHT22;57598;50.888;4.746;2023-05-19T12:45:47;25.50;47.30
21570;DHT22;57598;50.888;4.746;2023-05-19T12:48:14;25.90;47.70
21570;DHT22;57598;50.888;4.746;2023-05-19T12:50:42;26.30;47.50
21570;DHT22;57598;50.888;4.746;2023-05-19T12:53:10;26.20;46.70
21570;DHT22;57598;50.888;4.746;2023-05-19T12:55:38;26.20;46.90
21570;DHT22;57598;50.888;4.746;2023-05-19T12:58:07;26.30;47.40
21570;DHT22;57598;50.888;4.746;2023-05-19T13:00:41;26.70;46.50
21570;DHT22;57598;50.888;4.746;2023-05-19T13:03:14;26.30;45.80
21570;DHT22;57598;50.888;4.746;2023-05-19T13:05:42;26.00;46.70
21570;DHT22;57598;50.888;4.746;2023-05-19T13:08:12;26.30;46.10
21570;DHT22;57598;50.888;4.746;2023-05-19T13:10:40;26.90;45.60
21570;DHT22;57598;50.888;4.746;2023-05-19T13:13:08;26.80;45.80
21570;DHT22;57598;50.888;4.746;2023-05-19T13:15:37;27.00;47.70
21570;DHT22;57598;50.888;4.746;2023-05-19T13:18:07;27.10;44.80
21570;DHT22;57598;50.888;4.746;2023-05-19T13:20:34;27.40;46.40
21570;DHT22;57598;50.888;4.746;2023-05-19T13:23:02;27.40;45.50
21570;DHT22;57598;50.888;4.746;2023-05-19T13:25:29;27.10;44.40
21570;DHT22;57598;50.888;4.746;2023-05-19T13:27:57;27.50;45.10
21570;DHT22;57598;50.888;4.746;2023-05-19T13:30:26;27.40;45.80
21570;DHT22;57598;50.888;4.746;2023-05-19T13:32:53;27.10;45.10
21570;DHT22;57598;50.888;4.746;2023-05-19T13:35:21;27.00;44.60
21570;DHT22;57598;50.888;4.746;2023-05-19T13:37:49;27.10;45.00
21570;DHT22;57598;50.888;4.746;2023-05-19T13:40:16;27.40;45.00
21570;DHT22;57598;50.888;4.746;2023-05-19T13:42:43;27.20;44.40
21570;DHT22;57598;50.888;4.746;2023-05-19T13:45:11;26.90;44.20
21570;DHT22;57598;50.888;4.746;2023-05-19T13:47:38;27.10;44.80
21570;DHT22;57598;50.888;4.746;2023-05-19T13:50:05;27.10;45.40
21570;DHT22;57598;50.888;4.746;2023-05-19T13:52:34;27.50;44.50
21570;DHT22;57598;50.888;4.746;2023-05-19T13:55:01;26.80;45.50
21570;DHT22;57598;50.888;4.746;2023-05-19T13:57:28;26.70;45.60
21570;DHT22;57598;50.888;4.746;2023-05-19T13:59:55;26.30;44.10
21570;DHT22;57598;50.888;4.746;2023-05-19T14:02:22;26.10;44.40
21570;DHT22;57598;50.888;4.746;2023-05-19T14:04:49;26.00;46.70
21570;DHT22;57598;50.888;4.746;2023-05-19T14:07:16;26.00;45.80
21570;DHT22;57598;50.888;4.746;2023-05-19T14:09:45;26.70;46.50
21570;DHT22;57598;50.888;4.746;2023-05-19T14:12:12;26.90;46.40
21570;DHT22;57598;50.888;4.746;2023-05-19T14:14:40;27.10;45.30
21570;DHT22;57598;50.888;4.746;2023-05-19T14:17:06;26.90;44.20
21570;DHT22;57598;50.888;4.746;2023-05-19T14:19:33;26.80;44.20
21570;DHT22;57598;50.888;4.746;2023-05-19T14:22:00;26.80;44.90
21570;DHT22;57598;50.888;4.746;2023-05-19T14:24:27;27.00;44.50
21570;DHT22;57598;50.888;4.746;2023-05-19T14:26:56;27.30;46.00
21570;DHT22;57598;50.888;4.746;2023-05-19T14:29:23;27.10;43.40
21570;DHT22;57598;50.888;4.746;2023-05-19T14:31:50;26.70;44.10
21570;DHT22;57598;50.888;4.746;2023-05-19T14:34:17;26.50;44.20
21570;DHT22;57598;50.888;4.746;2023-05-19T14:36:45;26.60;44.70
21570;DHT22;57598;50.888;4.746;2023-05-19T14:39:13;26.80;43.80
21570;DHT22;57598;50.888;4.746;2023-05-19T14:41:40;27.60;43.80
21570;DHT22;57598;50.888;4.746;2023-05-19T14:44:08;27.40;43.20
21570;DHT22;57598;50.888;4.746;2023-05-19T14:46:35;27.30;45.30
21570;DHT22;57598;50.888;4.746;2023-05-19T14:49:02;26.30;45.00
21570;DHT22;57598;50.888;4.746;2023-05-19T14:51:31;26.00;44.90
21570;DHT22;57598;50.888;4.746;2023-05-19T14:53:58;26.40;45.20
21570;DHT22;57598;50.888;4.746;2023-05-19T14:56:26;26.30;44.70
21570;DHT22;57598;50.888;4.746;2023-05-19T14:58:53;26.20;44.70
21570;DHT22;57598;50.888;4.746;2023-05-19T15:01:22;25.90;45.70
21570;DHT22;57598;50.888;4.746;2023-05-19T15:03:49;26.00;45.80
21570;DHT22;57598;50.888;4.746;2023-05-19T15:06:16;25.50;46.90
21570;DHT22;57598;50.888;4.746;2023-05-19T15:08:43;25.60;47.70
21570;DHT22;57598;50.888;4.746;2023-05-19T15:11:10;25.00;47.60
21570;DHT22;57598;50.888;4.746;2023-05-19T15:13:37;24.80;47.90
21570;DHT22;57598;50.888;4.746;2023-05-19T15:16:04;24.80;49.50
21570;DHT22;57598;50.888;4.746;2023-05-19T15:18:36;24.90;49.50
21570;DHT22;57598;50.888;4.746;2023-05-19T15:21:03;24.40;48.30
21570;DHT22;57598;50.888;4.746;2023-05-19T15:23:30;24.10;48.90
21570;DHT22;57598;50.888;4.746;2023-05-19T15:25:58;24.30;49.50
21570;DHT22;57598;50.888;4.746;2023-05-19T15:28:25;24.50;49.80
21570;DHT22;57598;50.888;4.746;2023-05-19T15:30:52;24.70;49.50
21570;DHT22;57598;50.888;4.746;2023-05-19T15:33:19;24.70;49.40
21570;DHT22;57598;50.888;4.746;2023-05-19T15:35:47;24.60;48.50
21570;DHT22;57598;50.888;4.746;2023-05-19T15:38:17;24.00;48.80
21570;DHT22;57598;50.888;4.746;2023-05-19T15:40:44;23.90;50.20
21570;DHT22;57598;50.888;4.746;2023-05-19T15:43:11;24.00;49.20
21570;DHT22;57598;50.888;4.746;2023-05-19T15:45:38;23.60;49.80
21570;DHT22;57598;50.888;4.746;2023-05-19T15:48:06;23.90;51.00
21570;DHT22;57598;50.888;4.746;2023-05-19T15:50:32;23.70;50.70
21570;DHT22;57598;50.888;4.746;2023-05-19T15:53:01;23.60;51.70
21570;DHT22;57598;50.888;4.746;2023-05-19T15:55:28;23.30;50.80
21570;DHT22;57598;50.888;4.746;2023-05-19T15:57:55;23.00;50.80
21570;DHT22;57598;50.888;4.746;2023-05-19T16:00:22;23.30;51.60
21570;DHT22;57598;50.888;4.746;2023-05-19T16:02:49;23.50;52.40
21570;DHT22;57598;50.888;4.746;2023-05-19T16:05:16;23.40;50.80
21570;DHT22;57598;50.888;4.746;2023-05-19T16:07:43;23.60;51.30
21570;DHT22;57598;50.888;4.746;2023-05-19T16:10:12;23.40;51.80
21570;DHT22;57598;50.888;4.746;2023-05-19T16:12:39;23.40;52.40
21570;DHT22;57598;50.888;4.746;2023-05-19T16:15:06;23.10;50.70
21570;DHT22;57598;50.888;4.746;2023-05-19T16:17:33;23.10;50.80
21570;DHT22;57598;50.888;4.746;2023-05-19T16:20:00;23.00;51.00
21570;DHT22;57598;50.888;4.746;2023-05-19T16:22:28;23.20;51.70
21570;DHT22;57598;50.888;4.746;2023-05-19T16:24:55;23.20;50.90
21570;DHT22;57598;50.888;4.746;2023-05-19T16:27:23;23.10;50.20
21570;DHT22;57598;50.888;4.746;2023-05-19T16:29:50;22.80;50.80
21570;DHT22;57598;50.888;4.746;2023-05-19T16:32:17;22.60;51.20
21570;DHT22;57598;50.888;4.746;2023-05-19T16:34:44;22.40;51.40
21570;DHT22;57598;50.888;4.746;2023-05-19T16:37:11;22.60;51.70
21570;DHT22;57598;50.888;4.746;2023-05-19T16:39:38;22.90;52.90
21570;DHT22;57598;50.888;4.746;2023-05-19T16:42:06;22.90;52.70
21570;DHT22;57598;50.888;4.746;2023-05-19T16:44:34;22.60;52.00
21570;DHT22;57598;50.888;4.746;2023-05-19T16:47:01;22.70;52.20
21570;DHT22;57598;50.888;4.746;2023-05-19T16:49:28;22.60;53.30
21570;DHT22;57598;50.888;4.746;2023-05-19T16:51:55;22.50;53.30
21570;DHT22;57598;50.888;4.746;2023-05-19T16:54:22;22.40;51.90
21570;DHT22;57598;50.888;4.746;2023-05-19T16:56:50;22.40;52.00
21570;DHT22;57598;50.888;4.746;2023-05-19T16:59:17;22.40;52.00
21570;DHT22;57598;50.888;4.746;2023-05-19T17:01:45;22.40;52.80
21570;DHT22;57598;50.888;4.746;2023-05-19T17:04:12;22.40;52.30
21570;DHT22;57598;50.888;4.746;2023-05-19T17:06:39;22.50;52.60
21570;DHT22;57598;50.888;4.746;2023-05-19T17:09:07;22.60;53.30
21570;DHT22;57598;50.888;4.746;2023-05-19T17:11:34;22.70;53.50
21570;DHT22;57598;50.888;4.746;2023-05-19T17:14:00;22.50;52.20
21570;DHT22;57598;50.888;4.746;2023-05-19T17:16:32;22.40;52.70
21570;DHT22;57598;50.888;4.746;2023-05-19T17:19:00;22.00;52.80
21570;DHT22;57598;50.888;4.746;2023-05-19T17:21:28;22.00;53.40
21570;DHT22;57598;50.888;4.746;2023-05-19T17:23:56;22.20;54.60
21570;DHT22;57598;50.888;4.746;2023-05-19T17:26:23;22.20;54.10
21570;DHT22;57598;50.888;4.746;2023-05-19T17:28:51;22.40;55.10
21570;DHT22;57598;50.888;4.746;2023-05-19T17:31:18;22.20;54.00
21570;DHT22;57598;50.888;4.746;2023-05-19T17:33:45;22.30;53.70
21570;DHT22;57598;50.888;4.746;2023-05-19T17:36:13;22.20;53.90
21570;DHT22;57598;50.888;4.746;2023-05-19T17:38:40;21.90;53.90
21570;DHT22;57598;50.888;4.746;2023-05-19T17:41:08;21.80;54.50
21570;DHT22;57598;50.888;4.746;2023-05-19T17:43:35;21.60;54.40
21570;DHT22;57598;50.888;4.746;2023-05-19T17:46:02;21.20;55.20
21570;DHT22;57598;50.888;4.746;2023-05-19T17:48:30;21.30;55.50
21570;DHT22;57598;50.888;4.746;2023-05-19T17:50:57;21.30;55.10
21570;DHT22;57598;50.888;4.746;2023-05-19T17:53:26;21.20;55.30
21570;DHT22;57598;50.888;4.746;2023-05-19T17:55:58;21.30;55.20
21570;DHT22;57598;50.888;4.746;2023-05-19T17:58:25;21.10;55.70
21570;DHT22;57598;50.888;4.746;2023-05-19T18:00:52;21.10;56.20
21570;DHT22;57598;50.888;4.746;2023-05-19T18:03:20;21.00;56.00
21570;DHT22;57598;50.888;4.746;2023-05-19T18:05:48;20.90;55.60
21570;DHT22;57598;50.888;4.746;2023-05-19T18:08:16;20.90;55.80
21570;DHT22;57598;50.888;4.746;2023-05-19T18:10:45;20.70;56.10
21570;DHT22;57598;50.888;4.746;2023-05-19T18:13:13;20.60;56.30
21570;DHT22;57598;50.888;4.746;2023-05-19T18:15:40;20.50;56.50
21570;DHT22;57598;50.888;4.746;2023-05-19T18:18:07;20.60;57.10
21570;DHT22;57598;50.888;4.746;2023-05-19T18:20:35;20.60;57.10
21570;DHT22;57598;50.888;4.746;2023-05-19T18:23:05;20.60;56.90
21570;DHT22;57598;50.888;4.746;2023-05-19T18:25:33;20.50;57.20
21570;DHT22;57598;50.888;4.746;2023-05-19T18:28:02;20.30;57.30
21570;DHT22;57598;50.888;4.746;2023-05-19T18:30:29;20.30;57.90
21570;DHT22;57598;50.888;4.746;2023-05-19T18:32:56;20.30;57.80
21570;DHT22;57598;50.888;4.746;2023-05-19T18:35:26;20.30;58.00
21570;DHT22;57598;50.888;4.746;2023-05-19T18:37:53;20.20;58.20
21570;DHT22;57598;50.888;4.746;2023-05-19T18:40:22;20.10;58.30
21570;DHT22;57598;50.888;4.746;2023-05-19T18:42:49;20.10;58.70
21570;DHT22;57598;50.888;4.746;2023-05-19T18:45:18;20.10;58.70
21570;DHT22;57598;50.888;4.746;2023-05-19T18:47:45;20.00;58.60
21570;DHT22;57598;50.888;4.746;2023-05-19T18:50:12;20.00;59.10
21570;DHT22;57598;50.888;4.746;2023-05-19T18:52:39;19.90;59.00
21570;DHT22;57598;50.888;4.746;2023-05-19T18:55:06;19.80;59.30
21570;DHT22;57598;50.888;4.746;2023-05-19T18:57:34;19.80;59.60
21570;DHT22;57598;50.888;4.746;2023-05-19T19:00:01;19.80;59.60
21570;DHT22;57598;50.888;4.746;2023-05-19T19:02:30;19.60;59.80
21570;DHT22;57598;50.888;4.746;2023-05-19T19:04:57;19.60;60.40
21570;DHT22;57598;50.888;4.746;2023-05-19T19:07:24;19.60;61.00
21570;DHT22;57598;50.888;4.746;2023-05-19T19:09:51;19.40;61.70
21570;DHT22;57598;50.888;4.746;2023-05-19T19:12:18;19.30;62.40
21570;DHT22;57598;50.888;4.746;2023-05-19T19:14:45;19.20;62.80
21570;DHT22;57598;50.888;4.746;2023-05-19T19:17:12;19.20;63.10
21570;DHT22;57598;50.888;4.746;2023-05-19T19:19:41;19.20;63.50
21570;DHT22;57598;50.888;4.746;2023-05-19T19:22:08;19.10;63.50
21570;DHT22;57598;50.888;4.746;2023-05-19T19:24:35;18.90;64.40
21570;DHT22;57598;50.888;4.746;2023-05-19T19:27:02;18.80;65.50
21570;DHT22;57598;50.888;4.746;2023-05-19T19:29:29;18.80;65.60
21570;DHT22;57598;50.888;4.746;2023-05-19T19:31:56;18.80;65.70
21570;DHT22;57598;50.888;4.746;2023-05-19T19:34:24;18.70;65.90
21570;DHT22;57598;50.888;4.746;2023-05-19T19:36:52;18.60;65.80
21570;DHT22;57598;50.888;4.746;2023-05-19T19:39:19;18.60;66.00
21570;DHT22;57598;50.888;4.746;2023-05-19T19:41:46;18.50;66.10
21570;DHT22;57598;50.888;4.746;2023-05-19T19:44:13;18.50;66.50
21570;DHT22;57598;50.888;4.746;2023-05-19T19:46:40;18.40;66.80
21570;DHT22;57598;50.888;4.746;2023-05-19T19:49:07;18.30;67.10
21570;DHT22;57598;50.888;4.746;2023-05-19T19:51:34;18.40;67.20
21570;DHT22;57598;50.888;4.746;2023-05-19T19:54:03;18.30;67.20
21570;DHT22;57598;50.888;4.746;2023-05-19T19:56:30;18.20;67.90
21570;DHT22;57598;50.888;4.746;2023-05-19T19:58:57;18.20;67.50
